Time;durP1;ratioP1;P1;durP2;ratioP2;P2;SDS_P1;SDS_P2;PMS_P1;PMS_P2;Temp;Humidity;BMP_temperature;BMP_pressure;BME280_temperature;BME280_humidity;BME280_pressure;Samples;Min_cycle;Max_cycle;Signal;HPM_P1;HPM_P2
2024/02/19 00:01:58;;;;;;;2.28;0.82;;;;;;;0.30;59.62;100230.53;4983105;28;20871;-52
2024/02/19 00:04:24;;;;;;;2.38;1.23;;;;;;;0.34;59.22;100232.31;4953971;28;20069;-52
2024/02/19 00:06:51;;;;;;;3.03;1.50;;;;;;;0.36;59.46;100235.75;4993116;28;20030;-52
2024/02/19 00:09:19;;;;;;;2.40;1.10;;;;;;;0.40;59.14;100238.38;4981196;28;20038;-51
2024/02/19 00:11:48;;;;;;;2.42;0.93;;;;;;;0.18;59.58;100199.66;5001022;28;20037;-47
2024/02/19 00:14:14;;;;;;;2.95;0.80;;;;;;;0.43;59.45;100250.34;4989548;28;20133;-54
2024/02/19 00:16:40;;;;;;;4.05;1.30;;;;;;;0.22;59.56;100221.88;5005737;28;20943;-48
2024/02/19 00:19:06;;;;;;;3.78;1.58;;;;;;;0.34;59.69;100253.63;5001024;28;20041;-51
2024/02/19 00:21:33;;;;;;;1.55;1.00;;;;;;;0.30;59.86;100254.44;4968767;28;20038;-54
2024/02/19 00:23:58;;;;;;;3.20;1.35;;;;;;;0.33;59.68;100249.34;4987963;28;20511;-51
2024/02/19 00:26:24;;;;;;;1.63;0.95;;;;;;;0.30;60.50;100251.00;4987346;28;20046;-51
2024/02/19 00:28:51;;;;;;;3.28;1.63;;;;;;;0.30;60.20;100251.00;4991172;28;20052;-49
2024/02/19 00:31:17;;;;;;;4.80;1.63;;;;;;;0.35;60.17;100260.47;5006667;28;20159;-55
2024/02/19 00:33:43;;;;;;;3.03;1.00;;;;;;;0.35;60.29;100249.38;4989099;28;20082;-52
2024/02/19 00:36:09;;;;;;;3.88;1.65;;;;;;;0.32;59.76;100255.28;5004747;28;20065;-49
2024/02/19 00:38:35;;;;;;;2.55;1.40;;;;;;;0.31;60.12;100255.28;4994863;28;20093;-55
2024/02/19 00:41:04;;;;;;;1.85;0.90;;;;;;;0.07;60.35;100213.97;4980920;28;20092;-54
2024/02/19 00:43:31;;;;;;;4.20;1.95;;;;;;;0.29;60.05;100257.81;4989303;28;20515;-52
2024/02/19 00:45:57;;;;;;;4.78;1.35;;;;;;;0.26;60.00;100251.81;5006201;28;20070;-53
2024/02/19 00:48:23;;;;;;;4.28;1.35;;;;;;;0.23;59.81;100264.50;4987104;28;20053;-53
2024/02/19 00:50:50;;;;;;;1.55;0.63;;;;;;;0.22;59.77;100262.78;4986751;28;20039;-50
2024/02/19 00:53:16;;;;;;;5.32;1.40;;;;;;;0.21;59.99;100261.94;5006197;28;20037;-51
2024/02/19 00:55:41;;;;;;;2.90;1.65;;;;;;;0.03;59.83;100227.53;5006076;28;20053;-52
2024/02/19 00:58:09;;;;;;;2.33;1.02;;;;;;;0.28;59.88;100268.88;4993204;28;20153;-49
2024/02/19 01:00:35;;;;;;;3.20;1.25;;;;;;;0.23;59.77;100273.06;4986833;28;20133;-48
2024/02/19 01:03:01;;;;;;;1.67;0.80;;;;;;;0.26;59.73;100275.66;4986807;28;20038;-51
2024/02/19 01:05:27;;;;;;;1.52;1.02;;;;;;;0.11;60.07;100256.63;4986709;28;20533;-51
2024/02/19 01:07:53;;;;;;;2.15;0.95;;;;;;;0.18;59.50;100279.78;4984665;28;20050;-55
2024/02/19 01:10:19;;;;;;;2.55;1.50;;;;;;;0.17;59.29;100269.53;5001334;28;20462;-48
2024/02/19 01:12:45;;;;;;;2.05;0.82;;;;;;;0.20;59.26;100282.38;5004897;28;20042;-51
2024/02/19 01:15:11;;;;;;;3.15;1.10;;;;;;;0.12;59.46;100281.38;4993341;28;20096;-54
2024/02/19 01:17:36;;;;;;;2.90;0.90;;;;;;;0.10;59.26;100290.72;4997849;28;20116;-55
2024/02/19 01:20:04;;;;;;;3.67;1.45;;;;;;;0.12;59.65;100281.38;4985705;28;20263;-53
2024/02/19 01:22:30;;;;;;;6.40;1.13;;;;;;;0.16;59.14;100293.41;4997715;28;20080;-51
2024/02/19 01:24:56;;;;;;;3.03;0.63;;;;;;;0.10;59.11;100293.28;5004944;28;20042;-50
2024/02/19 01:27:24;;;;;;;2.75;1.10;;;;;;;0.09;59.51;100291.56;5005878;28;20124;-54
2024/02/19 01:29:50;;;;;;;4.20;1.58;;;;;;;0.05;59.46;100293.22;4989236;28;20050;-50
2024/02/19 01:32:16;;;;;;;2.67;1.13;;;;;;;0.09;59.18;100294.97;5000336;28;20053;-51
2024/02/19 01:34:43;;;;;;;4.63;1.52;;;;;;;0.10;59.18;100294.16;5006564;28;20084;-54
2024/02/19 01:37:09;;;;;;;1.65;1.00;;;;;;;-0.09;59.21;100271.63;4985003;28;20043;-55
2024/02/19 01:39:35;;;;;;;2.75;0.88;;;;;;;0.08;59.40;100293.25;4985693;28;20038;-50
2024/02/19 01:42:03;;;;;;;3.53;1.30;;;;;;;-0.05;58.89;100287.03;4986826;28;20138;-53
2024/02/19 01:44:29;;;;;;;3.30;1.20;;;;;;;0.06;59.28;100304.25;4986306;28;20042;-50
2024/02/19 01:46:56;;;;;;;3.33;1.30;;;;;;;0.07;59.44;100308.53;4987533;28;20049;-50
2024/02/19 01:49:22;;;;;;;4.00;1.33;;;;;;;0.07;59.29;100298.31;4990320;28;20069;-58
2024/02/19 01:51:48;;;;;;;2.67;1.30;;;;;;;0.09;59.51;100310.31;4990871;28;20042;-54
2024/02/19 01:54:14;;;;;;;4.47;1.48;;;;;;;0.10;59.06;100306.94;5004944;28;20052;-55
2024/02/19 01:56:41;;;;;;;2.95;1.35;;;;;;;-0.03;59.03;100294.75;5004589;28;20037;-51
2024/02/19 01:59:09;;;;;;;3.15;1.30;;;;;;;-0.14;59.01;100279.22;5004250;28;20049;-54
2024/02/19 02:01:37;;;;;;;3.25;1.30;;;;;;;0.04;58.72;100305.94;5004347;28;20038;-52
2024/02/19 02:04:05;;;;;;;3.45;1.48;;;;;;;0.04;59.18;100306.81;5004365;28;20099;-51
2024/02/19 02:06:32;;;;;;;4.07;1.10;;;;;;;-0.14;58.75;100281.78;4988931;28;20038;-52
2024/02/19 02:08:59;;;;;;;2.30;1.10;;;;;;;0.01;58.89;100314.41;4991228;28;20494;-50
2024/02/19 02:11:24;;;;;;;1.48;0.90;;;;;;;-0.02;58.38;100315.22;5009143;28;20049;-49
2024/02/19 02:13:50;;;;;;;2.88;1.00;;;;;;;-0.24;58.69;100279.88;5007711;28;20057;-52
2024/02/19 02:16:26;;;;;;;2.40;1.30;;;;;;;-0.04;58.76;100316.03;5007676;28;20042;-49
2024/02/19 02:18:53;;;;;;;3.78;1.15;;;;;;;-0.04;58.27;100313.47;4997148;28;20197;-51
2024/02/19 02:21:19;;;;;;;3.17;1.38;;;;;;;-0.08;58.45;100309.13;4988060;28;20049;-51
2024/02/19 02:23:45;;;;;;;2.20;1.15;;;;;;;-0.07;58.68;100308.31;5006145;28;20042;-53
2024/02/19 02:26:12;;;;;;;2.58;1.27;;;;;;;-0.10;58.32;100311.66;5007627;28;20034;-52
2024/02/19 02:28:38;;;;;;;2.95;1.40;;;;;;;-0.12;58.55;100308.22;4970803;28;20065;-50
2024/02/19 02:31:05;;;;;;;2.70;0.90;;;;;;;-0.10;58.01;100318.47;4988014;28;20061;-49
2024/02/19 02:33:31;;;;;;;2.80;1.10;;;;;;;-0.27;58.08;100284.97;5004416;28;20523;-52
2024/02/19 02:35:56;;;;;;;28.35;1.58;;;;;;;-0.08;58.01;100321.91;4988426;28;20042;-52
2024/02/19 02:38:23;;;;;;;2.85;1.70;;;;;;;-0.50;57.93;100255.56;4999516;28;20580;-50
2024/02/19 02:40:49;;;;;;;2.10;1.20;;;;;;;-0.09;57.66;100330.41;4972753;28;20046;-51
2024/02/19 02:43:15;;;;;;;3.13;1.13;;;;;;;-0.37;57.39;100287.31;4988452;28;20042;-51
2024/02/19 02:45:41;;;;;;;2.72;1.20;;;;;;;-0.19;57.46;100326.81;4988331;28;20104;-50
2024/02/19 02:48:08;;;;;;;3.75;1.15;;;;;;;-0.23;57.42;100335.28;4994364;28;20473;-52
2024/02/19 02:50:34;;;;;;;2.83;1.67;;;;;;;-0.32;57.30;100335.09;5007519;28;20089;-52
2024/02/19 02:52:59;;;;;;;2.08;1.05;;;;;;;-0.35;56.99;100329.91;4988909;28;20042;-52
2024/02/19 02:55:25;;;;;;;3.15;1.13;;;;;;;-0.71;57.03;100273.88;4991005;28;20434;-48
2024/02/19 02:57:51;;;;;;;1.98;1.23;;;;;;;-0.34;57.22;100335.88;4989697;28;20046;-50
2024/02/19 03:00:18;;;;;;;3.38;1.02;;;;;;;-0.31;56.71;100341.03;5007570;28;20041;-52
2024/02/19 03:02:44;;;;;;;3.33;1.15;;;;;;;-0.56;56.85;100302.25;4990299;28;20049;-51
2024/02/19 03:05:10;;;;;;;4.45;1.20;;;;;;;-0.38;57.19;100334.97;4990868;28;20415;-53
2024/02/19 03:07:36;;;;;;;3.13;0.90;;;;;;;-0.38;56.73;100339.22;5007871;28;20073;-56
2024/02/19 03:10:01;;;;;;;3.17;1.30;;;;;;;-0.39;56.59;100346.00;5007308;28;20041;-49
2024/02/19 03:12:29;;;;;;;2.67;0.65;;;;;;;-0.64;56.82;100310.59;4990976;28;20050;-49
2024/02/19 03:14:55;;;;;;;4.10;1.05;;;;;;;-0.39;56.97;100353.69;4987958;28;20112;-50
2024/02/19 03:17:21;;;;;;;2.58;0.85;;;;;;;-0.35;56.91;100357.16;4987434;28;20038;-50
2024/02/19 03:19:47;;;;;;;4.65;1.00;;;;;;;-0.47;56.99;100334.78;4981987;28;20050;-53
2024/02/19 03:22:13;;;;;;;1.90;1.02;;;;;;;-0.71;57.09;100301.94;4987666;28;20049;-51
2024/02/19 03:24:40;;;;;;;2.55;1.15;;;;;;;-0.36;57.09;100366.50;4969919;28;20034;-48
2024/02/19 03:27:05;;;;;;;5.75;1.90;;;;;;;-0.34;57.44;100369.09;5006829;28;20080;-51
2024/02/19 03:29:31;;;;;;;3.13;1.13;;;;;;;-0.41;57.46;100375.75;5005683;28;20034;-53
2024/02/19 03:31:57;;;;;;;2.53;1.10;;;;;;;-0.71;57.53;100341.94;4987490;28;20038;-52
2024/02/19 03:34:24;;;;;;;2.70;0.88;;;;;;;-0.53;57.49;100373.84;4987001;28;20042;-51
2024/02/19 03:36:50;;;;;;;5.18;1.67;;;;;;;-0.71;57.44;100347.91;4987238;28;20137;-52
2024/02/19 03:39:17;;;;;;;1.80;1.00;;;;;;;-0.59;57.69;100383.91;4981249;28;20048;-54
2024/02/19 03:41:44;;;;;;;2.47;0.93;;;;;;;-0.58;57.68;100387.34;4996484;28;20042;-49
2024/02/19 03:44:09;;;;;;;4.10;1.50;;;;;;;-0.56;57.66;100388.22;4997679;28;20034;-51
2024/02/19 03:46:35;;;;;;;4.70;1.42;;;;;;;-0.54;57.57;100390.00;4989847;28;20045;-52
2024/02/19 03:49:02;;;;;;;1.58;1.00;;;;;;;-0.76;57.41;100362.25;5004520;28;20532;-47
2024/02/19 03:51:28;;;;;;;4.30;1.58;;;;;;;-0.58;57.25;100402.66;4987429;28;20042;-51
2024/02/19 03:53:54;;;;;;;2.92;1.40;;;;;;;-0.59;57.26;100401.78;4991123;28;20048;-49
2024/02/19 03:56:20;;;;;;;2.05;1.15;;;;;;;-0.78;57.57;100370.69;5007324;28;20041;-50
2024/02/19 03:58:46;;;;;;;3.05;0.80;;;;;;;-0.68;57.62;100398.19;5006743;28;20184;-53
2024/02/19 04:01:13;;;;;;;2.30;0.93;;;;;;;-0.65;57.14;100409.31;5007184;28;20569;-51
2024/02/19 04:03:39;;;;;;;3.13;1.30;;;;;;;-0.69;57.41;100410.09;5005194;28;20171;-46
2024/02/19 04:06:05;;;;;;;3.95;1.38;;;;;;;-0.71;57.26;100411.72;4987525;28;20053;-53
2024/02/19 04:08:32;;;;;;;4.90;1.20;;;;;;;-1.10;57.23;100352.13;4995692;28;20042;-54
2024/02/19 04:10:58;;;;;;;5.18;1.60;;;;;;;-0.80;57.73;100401.31;5006072;28;20142;-51
2024/02/19 04:13:24;;;;;;;2.65;0.98;;;;;;;-0.69;57.56;100415.19;4986392;28;20043;-48
2024/02/19 04:15:50;;;;;;;3.30;1.65;;;;;;;-0.69;57.39;100411.78;4987474;28;20149;-48
2024/02/19 04:18:16;;;;;;;1.05;0.63;;;;;;;-0.68;57.15;100418.59;4980299;28;20038;-52
2024/02/19 04:20:41;;;;;;;3.10;1.33;;;;;;;-0.69;57.19;100419.44;5005333;28;20046;-50
2024/02/19 04:23:07;;;;;;;3.92;1.50;;;;;;;-0.66;57.64;100416.94;4987237;28;20042;-49
2024/02/19 04:25:33;;;;;;;3.08;1.55;;;;;;;-0.66;57.49;100417.78;5001831;28;20529;-52
2024/02/19 04:28:00;;;;;;;4.88;1.30;;;;;;;-0.93;57.66;100377.19;5004980;28;20043;-51
2024/02/19 04:30:25;;;;;;;3.10;1.58;;;;;;;-0.71;57.52;100427.03;5005778;28;20051;-52
2024/02/19 04:32:51;;;;;;;1.40;0.80;;;;;;;-0.71;57.73;100421.06;4996537;28;20100;-48
2024/02/19 04:35:18;;;;;;;1.00;0.57;;;;;;;-1.00;57.49;100384.69;4997550;28;20046;-50
2024/02/19 04:37:44;;;;;;;2.65;0.50;;;;;;;-0.85;57.57;100425.88;4996138;28;20049;-52
2024/02/19 04:40:12;;;;;;;1.27;0.60;;;;;;;-1.10;57.60;100400.63;4963258;28;20073;-51
2024/02/19 04:42:39;;;;;;;1.00;0.95;;;;;;;-1.00;57.60;100430.63;4977945;28;20137;-50
2024/02/19 04:45:05;;;;;;;0.93;0.57;;;;;;;-1.16;57.51;100414.09;4999838;28;20068;-49
2024/02/19 04:47:31;;;;;;;3.92;0.57;;;;;;;-1.23;57.62;100407.09;4994755;28;20385;-49
2024/02/19 04:49:57;;;;;;;2.65;0.80;;;;;;;-1.05;57.86;100450.94;4997041;28;20506;-52
2024/02/19 04:52:24;;;;;;;0.68;0.50;;;;;;;-1.03;57.77;100448.41;4989297;28;20053;-48
2024/02/19 04:54:50;;;;;;;3.67;0.80;;;;;;;-1.05;57.75;100445.81;4994645;28;20502;-49
2024/02/19 04:57:15;;;;;;;1.35;0.60;;;;;;;-1.02;57.63;100448.44;4952730;28;20049;-54
2024/02/19 04:59:42;;;;;;;4.68;0.90;;;;;;;-1.02;57.67;100447.56;5004356;28;20438;-51
2024/02/19 05:02:08;;;;;;;1.77;1.10;;;;;;;-1.07;57.87;100438.94;5005032;28;20430;-47
2024/02/19 05:04:34;;;;;;;3.17;1.17;;;;;;;-1.21;57.69;100423.31;5004786;28;20140;-45
2024/02/19 05:06:59;;;;;;;1.65;0.75;;;;;;;-1.20;57.42;100419.06;4985633;28;20042;-51
2024/02/19 05:09:25;;;;;;;3.47;1.13;;;;;;;-1.06;57.67;100446.66;5001939;28;20050;-48
2024/02/19 05:11:51;;;;;;;7.45;2.13;;;;;;;-1.02;57.63;100448.44;4998866;28;20128;-50
2024/02/19 05:14:17;;;;;;;2.42;1.33;;;;;;;-0.96;57.76;100461.34;5004698;28;20064;-50
2024/02/19 05:16:43;;;;;;;3.47;1.50;;;;;;;-0.94;57.47;100454.56;5006341;28;20072;-51
2024/02/19 05:19:09;;;;;;;1.42;1.02;;;;;;;-1.43;57.44;100387.91;5004128;28;20045;-50
2024/02/19 05:21:40;;;;;;;2.72;1.15;;;;;;;-1.29;57.53;100424.78;5004316;28;20038;-49
2024/02/19 05:24:08;;;;;;;1.33;0.68;;;;;;;-1.07;57.52;100462.78;4971114;28;20564;-46
2024/02/19 05:26:34;;;;;;;5.57;1.15;;;;;;;-1.05;57.55;100460.28;5005319;28;20108;-52
2024/02/19 05:29:00;;;;;;;2.33;0.80;;;;;;;-1.11;57.65;100455.00;4987884;28;20506;-50
2024/02/19 05:31:34;;;;;;;3.38;1.10;;;;;;;-1.08;57.83;100460.19;4972623;28;20038;-49
2024/02/19 05:34:02;;;;;;;3.80;1.08;;;;;;;-1.04;58.07;100459.41;5006138;28;20030;-49
2024/02/19 05:36:28;;;;;;;2.00;0.80;;;;;;;-1.06;57.76;100467.06;5005131;28;20061;-46
2024/02/19 05:38:54;;;;;;;1.83;0.90;;;;;;;-1.11;57.86;100466.09;4971240;28;20049;-48
2024/02/19 05:41:20;;;;;;;2.47;1.15;;;;;;;-1.11;57.23;100462.66;5005376;28;20037;-50
2024/02/19 05:43:48;;;;;;;3.13;1.15;;;;;;;-1.11;57.82;100467.78;4975805;28;20071;-48
2024/02/19 05:46:14;;;;;;;3.78;1.10;;;;;;;-1.07;57.44;100467.00;4987299;28;20038;-48
2024/02/19 05:48:41;;;;;;;4.22;1.00;;;;;;;-1.05;57.69;100476.44;4990590;28;20112;-50
2024/02/19 05:51:07;;;;;;;3.67;1.25;;;;;;;-1.04;57.58;100479.84;4963992;28;20042;-54
2024/02/19 05:53:36;;;;;;;1.80;0.90;;;;;;;-1.24;57.69;100448.72;4998380;28;20077;-49
2024/02/19 05:56:05;;;;;;;1.63;0.60;;;;;;;-0.96;57.63;100483.47;5001876;28;20042;-53
2024/02/19 05:58:32;;;;;;;1.33;0.75;;;;;;;-0.96;57.41;100476.66;4997189;28;20074;-48
2024/02/19 06:00:58;;;;;;;2.42;0.80;;;;;;;-0.98;57.29;100488.50;4997096;28;20072;-50
2024/02/19 06:03:26;;;;;;;5.55;0.77;;;;;;;-1.21;57.51;100453.06;4993641;28;20038;-50
2024/02/19 06:05:52;;;;;;;0.82;0.35;;;;;;;-1.04;57.31;100483.25;4997559;28;20160;-50
2024/02/19 06:08:19;;;;;;;2.45;0.82;;;;;;;-1.02;56.94;100491.81;4985531;28;20081;-54
2024/02/19 06:10:45;;;;;;;1.60;0.98;;;;;;;-0.98;56.88;100495.31;4995652;28;20097;-52
2024/02/19 06:13:13;;;;;;;2.10;0.95;;;;;;;-0.94;56.97;100497.09;4996259;28;20105;-50
2024/02/19 06:15:38;;;;;;;1.25;0.60;;;;;;;-0.98;56.57;100496.16;4979681;28;20074;-51
2024/02/19 06:18:05;;;;;;;0.60;0.40;;;;;;;-1.01;56.87;100498.66;4987527;28;20058;-54
2024/02/19 06:20:32;;;;;;;2.00;0.88;;;;;;;-1.02;56.93;100508.81;4971406;28;20048;-49
2024/02/19 06:22:59;;;;;;;2.97;0.75;;;;;;;-0.97;57.07;100507.25;4982399;28;20042;-51
2024/02/19 06:25:26;;;;;;;4.00;1.20;;;;;;;-1.15;56.58;100479.56;4980286;28;20050;-50
2024/02/19 06:27:52;;;;;;;2.15;0.57;;;;;;;-1.02;56.69;100498.59;4979668;28;20125;-46
2024/02/19 06:30:18;;;;;;;2.15;0.73;;;;;;;-0.97;56.54;100505.56;4998634;28;20038;-49
2024/02/19 06:32:45;;;;;;;3.35;0.80;;;;;;;-0.95;56.89;100501.38;4994949;28;20548;-53
2024/02/19 06:35:12;;;;;;;6.07;1.00;;;;;;;-0.88;56.69;100508.34;4989499;28;20089;-53
2024/02/19 06:37:38;;;;;;;2.10;0.90;;;;;;;-0.82;56.41;100520.38;4992503;28;20050;-48
2024/02/19 06:40:06;;;;;;;0.88;0.57;;;;;;;-0.87;56.39;100515.16;4989412;28;20042;-53
2024/02/19 06:42:33;;;;;;;1.73;0.80;;;;;;;-1.22;56.20;100457.28;5003613;28;20100;-52
2024/02/19 06:44:59;;;;;;;4.40;1.15;;;;;;;-1.00;56.04;100499.53;5004716;28;20141;-51
2024/02/19 06:47:25;;;;;;;2.15;0.82;;;;;;;-0.94;56.42;100520.06;4986935;28;20474;-49
2024/02/19 06:49:51;;;;;;;0.52;0.50;;;;;;;-1.12;56.24;100523.03;4987602;28;20249;-48
2024/02/19 06:52:22;;;;;;;3.30;1.15;;;;;;;-1.51;56.39;100502.44;4999322;28;20038;-50
2024/02/19 06:54:49;;;;;;;2.25;1.00;;;;;;;-1.39;56.55;100527.41;4976926;28;20466;-50
2024/02/19 06:57:15;;;;;;;3.03;1.10;;;;;;;-1.36;56.66;100536.00;5006089;28;20053;-52
2024/02/19 06:59:41;;;;;;;2.28;0.85;;;;;;;-1.33;56.64;100531.00;5008234;28;20049;-48
2024/02/19 07:02:08;;;;;;;3.55;1.55;;;;;;;-1.41;56.51;100508.63;5007569;28;20045;-50
2024/02/19 07:04:36;;;;;;;3.75;1.60;;;;;;;-1.17;56.82;100539.91;4999251;28;20038;-50
2024/02/19 07:07:08;;;;;;;2.50;0.95;;;;;;;-1.36;56.44;100499.44;4976152;28;20141;-53
2024/02/19 07:09:36;;;;;;;4.25;1.08;;;;;;;-1.50;56.52;100458.25;4993465;28;20449;-50
2024/02/19 07:12:03;;;;;;;3.78;1.30;;;;;;;-1.02;56.08;100537.75;5000034;28;20060;-54
2024/02/19 07:14:28;;;;;;;1.70;1.17;;;;;;;-0.97;56.22;100530.22;4990668;28;20061;-53
2024/02/19 07:16:54;;;;;;;3.35;1.40;;;;;;;-0.77;56.13;100543.47;5006775;28;20440;-52
2024/02/19 07:19:20;;;;;;;2.45;1.00;;;;;;;-0.71;55.80;100541.94;4973688;28;20049;-51
2024/02/19 07:21:46;;;;;;;4.53;2.33;;;;;;;-0.62;55.83;100539.59;5002869;28;20042;-50
2024/02/19 07:24:12;;;;;;;3.17;1.80;;;;;;;-0.51;55.51;100544.97;4970961;28;20034;-48
2024/02/19 07:26:38;;;;;;;3.58;1.65;;;;;;;-0.58;55.52;100515.03;4992214;28;20045;-51
2024/02/19 07:29:04;;;;;;;7.80;1.80;;;;;;;-0.51;55.23;100496.44;4977880;28;20046;-58
2024/02/19 07:31:30;;;;;;;5.78;1.20;;;;;;;-0.24;55.05;100507.28;4971251;28;20061;-51
2024/02/19 07:33:56;;;;;;;5.90;1.70;;;;;;;-0.01;54.86;100500.13;4970073;28;20038;-55
2024/02/19 07:36:23;;;;;;;3.72;1.35;;;;;;;0.22;54.28;100513.38;4986776;28;20483;-51
2024/02/19 07:38:48;;;;;;;3.05;1.30;;;;;;;0.53;53.95;100533.59;4994194;28;20044;-55
2024/02/19 07:41:15;;;;;;;4.63;1.08;;;;;;;0.63;54.14;100532.13;4998265;28;20115;-50
2024/02/19 07:43:43;;;;;;;3.35;1.40;;;;;;;0.64;53.91;100536.38;5000334;28;20050;-49
2024/02/19 07:46:09;;;;;;;2.00;1.02;;;;;;;0.68;53.19;100539.00;4997019;28;20184;-51
2024/02/19 07:48:35;;;;;;;6.57;1.92;;;;;;;0.73;52.90;100539.13;4996374;28;20074;-54
2024/02/19 07:51:00;;;;;;;3.55;1.90;;;;;;;0.75;53.47;100542.56;4997591;28;20418;-53
2024/02/19 07:53:26;;;;;;;3.55;1.77;;;;;;;0.82;53.41;100545.28;4977337;28;20049;-53
2024/02/19 07:56:05;;;;;;;5.55;1.67;;;;;;;0.98;53.09;100538.75;4994740;28;20049;-52
2024/02/19 07:58:32;;;;;;;3.05;1.58;;;;;;;1.09;52.29;100541.50;4997823;28;20649;-50
2024/02/19 08:00:57;;;;;;;3.10;1.40;;;;;;;1.07;52.32;100544.00;4996063;28;20042;-49
2024/02/19 08:03:23;;;;;;;3.67;2.00;;;;;;;1.14;52.33;100550.97;4998608;28;20407;-51
2024/02/19 08:05:49;;;;;;;6.18;1.83;;;;;;;0.97;52.25;100519.09;4994251;28;20070;-49
2024/02/19 08:08:16;;;;;;;3.33;1.70;;;;;;;0.95;51.93;100496.84;5000684;28;20088;-51
2024/02/19 08:10:42;;;;;;;3.30;1.17;;;;;;;1.34;51.66;100550.44;4978437;28;20093;-50
2024/02/19 08:13:09;;;;;;;4.32;1.60;;;;;;;1.44;51.79;100553.19;4998406;28;20200;-50
2024/02/19 08:15:40;;;;;;;3.78;1.65;;;;;;;1.46;51.58;100564.34;4989507;28;20046;-54
2024/02/19 08:18:09;;;;;;;2.47;1.63;;;;;;;1.45;51.85;100562.59;4990131;28;20091;-52
2024/02/19 08:20:38;;;;;;;2.22;1.30;;;;;;;1.46;51.60;100568.59;4989346;28;20100;-54
2024/02/19 08:23:05;;;;;;;2.15;1.23;;;;;;;1.42;51.59;100549.72;4993121;28;20034;-50
2024/02/19 08:25:31;;;;;;;3.95;1.33;;;;;;;1.35;51.15;100537.66;4988602;28;20075;-53
2024/02/19 08:27:57;;;;;;;5.15;1.75;;;;;;;1.15;51.35;100503.19;4971977;28;20129;-50
2024/02/19 08:30:23;;;;;;;5.40;1.63;;;;;;;1.57;50.74;100569.63;4994434;28;20128;-50
2024/02/19 08:32:49;;;;;;;2.15;1.48;;;;;;;1.60;50.88;100565.41;4992627;28;20512;-52
2024/02/19 08:35:16;;;;;;;4.20;2.50;;;;;;;1.39;50.60;100521.50;4996591;28;20465;-50
2024/02/19 08:37:42;;;;;;;4.88;2.05;;;;;;;1.77;50.63;100582.75;4989241;28;20137;-47
2024/02/19 08:40:09;;;;;;;6.00;2.00;;;;;;;1.72;50.41;100585.25;4985167;28;20046;-49
2024/02/19 08:42:35;;;;;;;2.42;1.50;;;;;;;1.72;50.79;100586.94;4993613;28;20096;-50
2024/02/19 08:45:05;;;;;;;7.70;2.67;;;;;;;1.68;50.64;100583.44;4990936;28;20054;-53
2024/02/19 08:47:31;;;;;;;5.90;1.80;;;;;;;1.61;50.79;100589.34;4970076;28;20070;-51
2024/02/19 08:49:58;;;;;;;4.13;2.20;;;;;;;1.54;50.94;100592.63;4987561;28;20042;-51
2024/02/19 08:52:25;;;;;;;2.42;1.70;;;;;;;1.54;50.63;100590.06;5005644;28;20034;-49
2024/02/19 08:54:51;;;;;;;4.20;2.00;;;;;;;1.50;50.24;100580.59;4987925;28;20535;-50
2024/02/19 08:57:17;;;;;;;6.30;2.67;;;;;;;1.50;50.85;100580.59;4977358;28;20042;-51
2024/02/19 08:59:46;;;;;;;6.13;2.40;;;;;;;1.38;50.41;100552.22;4961113;28;20105;-48
2024/02/19 09:02:13;;;;;;;4.40;2.13;;;;;;;1.41;50.24;100586.44;4995505;28;20041;-53
2024/02/19 09:04:43;;;;;;;3.47;1.95;;;;;;;1.27;50.57;100587.88;4993139;28;20042;-53
2024/02/19 09:07:10;;;;;;;7.22;2.22;;;;;;;1.32;50.65;100588.81;4997696;28;20034;-52
2024/02/19 09:09:39;;;;;;;3.42;1.88;;;;;;;1.34;50.17;100576.94;4991813;28;20041;-47
2024/02/19 09:12:07;;;;;;;3.85;1.55;;;;;;;1.36;50.50;100587.22;4997573;28;20050;-49
2024/02/19 09:14:33;;;;;;;4.85;2.17;;;;;;;1.41;50.16;100585.59;4991136;28;20504;-50
2024/02/19 09:17:01;;;;;;;5.00;1.95;;;;;;;1.47;50.52;100593.34;4991588;28;20038;-52
2024/02/19 09:19:26;;;;;;;3.13;1.42;;;;;;;1.57;49.78;100593.53;4997240;28;20046;-50
2024/02/19 09:21:53;;;;;;;3.15;1.27;;;;;;;1.66;50.02;100595.41;4972309;28;20133;-49
2024/02/19 09:24:18;;;;;;;2.53;1.50;;;;;;;1.62;50.22;100588.50;4985199;28;20145;-46
2024/02/19 09:26:45;;;;;;;3.90;1.75;;;;;;;1.77;49.93;100591.31;5004742;28;20168;-52
2024/02/19 09:29:10;;;;;;;2.33;1.38;;;;;;;1.83;49.89;100575.16;5005734;28;20045;-53
2024/02/19 09:31:36;;;;;;;4.68;2.00;;;;;;;1.71;49.76;100588.63;5003112;28;20072;-52
2024/02/19 09:34:02;;;;;;;4.18;2.00;;;;;;;1.68;49.82;100561.25;4995447;28;20057;-49
2024/02/19 09:36:28;;;;;;;1.95;1.30;;;;;;;1.81;49.99;100559.75;4990071;28;20069;-49
2024/02/19 09:38:55;;;;;;;4.00;1.40;;;;;;;1.99;49.38;100590.75;4972150;28;20037;-52
2024/02/19 09:41:21;;;;;;;3.65;1.27;;;;;;;1.97;49.43;100594.16;4986366;28;20053;-50
2024/02/19 09:43:47;;;;;;;2.10;1.25;;;;;;;1.88;49.37;100599.16;5002793;28;20116;-50
2024/02/19 09:46:19;;;;;;;3.38;1.38;;;;;;;1.96;49.32;100602.69;4985297;28;20506;-52
2024/02/19 09:48:50;;;;;;;3.10;1.60;;;;;;;2.02;49.09;100595.09;4969084;28;20133;-50
2024/02/19 09:51:21;;;;;;;3.55;1.35;;;;;;;2.07;48.81;100598.59;4985166;28;20038;-54
2024/02/19 09:53:51;;;;;;;3.03;1.55;;;;;;;2.08;48.81;100600.31;5005266;28;20034;-55
2024/02/19 09:56:22;;;;;;;2.60;1.73;;;;;;;2.04;49.02;100604.50;5005460;28;20115;-56
2024/02/19 09:58:49;;;;;;;2.25;1.52;;;;;;;1.82;48.59;100534.97;4968551;28;20049;-54
2024/02/19 10:01:15;;;;;;;2.38;1.20;;;;;;;2.34;48.76;100604.09;4969325;28;20046;-49
2024/02/19 10:03:41;;;;;;;2.55;1.40;;;;;;;2.39;48.57;100568.25;4987838;28;20057;-50
2024/02/19 10:06:08;;;;;;;4.50;1.80;;;;;;;2.67;48.43;100597.69;4984710;28;20066;-51
2024/02/19 10:08:34;;;;;;;2.88;1.52;;;;;;;2.73;47.96;100598.59;4992927;28;20042;-50
2024/02/19 10:11:08;;;;;;;1.83;1.40;;;;;;;2.75;48.04;100596.06;4987845;28;20132;-54
2024/02/19 10:13:42;;;;;;;2.00;1.50;;;;;;;2.70;47.79;100572.03;5002812;28;20034;-53
2024/02/19 10:16:09;;;;;;;2.88;1.20;;;;;;;2.89;47.56;100597.06;5004344;28;20129;-52
2024/02/19 10:18:35;;;;;;;12.80;1.60;;;;;;;3.05;47.39;100595.53;4970570;28;20529;-51
2024/02/19 10:21:01;;;;;;;2.65;1.42;;;;;;;2.92;47.75;100532.91;4971217;28;20057;-53
2024/02/19 10:23:27;;;;;;;2.50;1.27;;;;;;;3.42;47.72;100597.63;5004049;28;20042;-54
2024/02/19 10:25:54;;;;;;;3.50;1.35;;;;;;;3.59;48.30;100596.06;5004994;28;20073;-48
2024/02/19 10:28:23;;;;;;;3.05;1.60;;;;;;;3.54;49.36;100600.31;5005964;28;20049;-48
2024/02/19 10:30:51;;;;;;;1.92;1.50;;;;;;;3.47;50.81;100593.38;5007239;28;20041;-51
2024/02/19 10:33:19;;;;;;;2.92;1.70;;;;;;;3.56;50.61;100600.34;5007200;28;20042;-49
2024/02/19 10:35:47;;;;;;;3.72;1.73;;;;;;;3.72;49.37;100592.72;4982146;28;20046;-52
2024/02/19 10:38:14;;;;;;;4.00;1.20;;;;;;;3.73;48.54;100553.31;4996385;28;20053;-51
2024/02/19 10:40:40;;;;;;;4.07;1.70;;;;;;;4.23;48.06;100583.66;5007979;28;20045;-51
2024/02/19 10:43:06;;;;;;;4.65;2.00;;;;;;;4.34;47.08;100589.72;5008327;28;20038;-56
2024/02/19 10:45:32;;;;;;;6.32;1.80;;;;;;;4.53;46.62;100588.97;5008730;28;20049;-52
2024/02/19 10:47:58;;;;;;;5.82;2.42;;;;;;;4.42;46.38;100588.03;5006675;28;20045;-49
2024/02/19 10:50:30;;;;;;;5.15;1.50;;;;;;;4.29;46.39;100557.09;4998964;28;20652;-52
2024/02/19 10:52:58;;;;;;;3.55;1.83;;;;;;;4.51;46.49;100588.09;4991384;28;20038;-52
2024/02/19 10:55:27;;;;;;;3.70;1.58;;;;;;;4.76;46.17;100589.06;4987706;28;20038;-52
2024/02/19 10:57:54;;;;;;;4.65;1.80;;;;;;;5.05;45.22;100584.84;4990144;28;20052;-50
2024/02/19 11:00:26;;;;;;;3.70;1.80;;;;;;;5.54;44.67;100547.09;5007918;28;20661;-54
2024/02/19 11:03:09;;;;;;;3.90;1.27;;;;;;;6.12;43.83;100580.63;5006890;28;20042;-52
2024/02/19 11:05:37;;;;;;;5.60;1.60;;;;;;;6.24;44.11;100580.56;5008117;28;20140;-49
2024/02/19 11:08:05;;;;;;;4.53;1.90;;;;;;;7.24;44.17;100579.25;4973497;28;20049;-51
2024/02/19 11:10:41;;;;;;;3.15;2.00;;;;;;;9.37;41.42;100577.81;5005042;28;20072;-51
2024/02/19 11:13:07;;;;;;;5.88;1.98;;;;;;;10.99;38.91;100580.03;4968539;28;20092;-51
2024/02/19 11:15:40;;;;;;;4.15;1.52;;;;;;;12.35;36.78;100582.81;4988544;28;20511;-50
2024/02/19 11:18:16;;;;;;;3.05;1.45;;;;;;;13.69;35.57;100577.03;4972241;28;20467;-49
2024/02/19 11:20:44;;;;;;;3.47;1.98;;;;;;;14.75;34.63;100581.19;4987612;28;20038;-50
2024/02/19 11:23:10;;;;;;;4.75;1.90;;;;;;;15.01;33.68;100551.41;4974596;28;20057;-53
2024/02/19 11:25:36;;;;;;;2.00;1.48;;;;;;;15.45;33.66;100583.69;5008031;28;20096;-54
2024/02/19 11:28:02;;;;;;;2.40;1.50;;;;;;;14.99;33.83;100547.97;4990470;28;20053;-49